createdAt,value
2019-05-05T00:00:24.797Z,99.90
2019-05-05T00:01:10.918Z,99.90
2019-05-05T00:02:06.483Z,99.90
2019-05-05T00:03:04.298Z,99.90
2019-05-05T00:03:48.938Z,99.90
2019-05-05T00:05:01.182Z,99.90
2019-05-05T00:05:39.678Z,99.90
2019-05-05T00:06:17.265Z,99.90
2019-05-05T00:06:55.081Z,99.90
2019-05-05T00:07:34.785Z,99.90
2019-05-05T00:08:15.199Z,99.90
2019-05-05T00:08:54.649Z,99.90
2019-05-05T00:09:31.327Z,99.90
2019-05-05T00:10:12.170Z,99.90
2019-05-05T00:10:58.975Z,99.90
2019-05-05T00:11:54.696Z,99.90
2019-05-05T00:12:52.028Z,99.90
2019-05-05T00:13:55.152Z,99.90
2019-05-05T00:14:44.273Z,99.90
2019-05-05T00:15:36.274Z,99.90
2019-05-05T00:16:35.069Z,99.90
2019-05-05T00:17:18.669Z,99.90
2019-05-05T00:17:56.261Z,99.90
2019-05-05T00:18:35.655Z,99.90
2019-05-05T00:19:28.795Z,99.90
2019-05-05T00:19:54.957Z,99.90
2019-05-05T00:20:34.403Z,99.90
2019-05-05T00:21:11.853Z,99.90
2019-05-05T00:21:49.655Z,99.90
2019-05-05T00:22:32.455Z,99.90
2019-05-05T00:23:10.420Z,99.90
2019-05-05T00:23:47.954Z,99.90
2019-05-05T00:24:26.170Z,99.90
2019-05-05T00:25:05.040Z,99.90
2019-05-05T00:25:44.707Z,99.90
2019-05-05T00:26:24.370Z,99.90
2019-05-05T00:27:04.309Z,99.90
2019-05-05T00:27:41.682Z,99.90
2019-05-05T00:28:19.261Z,99.90
2019-05-05T00:28:57.000Z,99.90
2019-05-05T00:29:37.076Z,99.90
2019-05-05T00:30:17.279Z,99.90
2019-05-05T00:30:55.566Z,99.90
2019-05-05T00:31:34.904Z,99.90
2019-05-05T00:32:12.115Z,99.90
2019-05-05T00:32:49.550Z,99.90
2019-05-05T00:33:27.307Z,99.90
2019-05-05T00:34:05.131Z,99.90
2019-05-05T00:34:45.168Z,99.90
2019-05-05T00:35:25.116Z,99.90
2019-05-05T00:36:04.806Z,99.90
2019-05-05T00:36:40.824Z,99.90
2019-05-05T00:37:18.883Z,99.90
2019-05-05T00:37:56.754Z,99.90
2019-05-05T00:38:35.320Z,99.90
2019-05-05T00:39:14.918Z,99.90
2019-05-05T00:39:55.329Z,99.90
2019-05-05T00:40:35.050Z,99.90
2019-05-05T00:41:14.987Z,99.90
2019-05-05T00:41:56.263Z,99.90
2019-05-05T00:42:35.249Z,99.90
2019-05-05T00:43:15.095Z,99.90
2019-05-05T00:43:55.532Z,99.90
2019-05-05T00:44:35.239Z,99.90
2019-05-05T00:45:14.714Z,99.90
2019-05-05T00:45:53.016Z,99.90
2019-05-05T00:46:57.981Z,99.90
2019-05-05T00:47:44.947Z,99.90
2019-05-05T00:48:35.050Z,99.90
2019-05-05T00:49:14.403Z,99.90
2019-05-05T00:49:59.928Z,99.90
2019-05-05T00:50:38.045Z,99.90
2019-05-05T00:51:15.960Z,99.90
2019-05-05T00:51:54.672Z,99.90
2019-05-05T00:52:32.488Z,99.90
2019-05-05T00:53:10.626Z,99.90
2019-05-05T00:53:47.450Z,99.90
2019-05-05T00:54:25.116Z,99.90
2019-05-05T00:55:02.268Z,99.90
2019-05-05T00:55:39.950Z,99.90
2019-05-05T00:56:16.814Z,99.90
2019-05-05T00:56:54.579Z,99.90
2019-05-05T00:57:32.358Z,99.90
2019-05-05T00:58:14.201Z,99.90
2019-05-05T00:58:56.946Z,99.90
2019-05-05T00:59:34.935Z,99.90
2019-05-05T01:00:19.810Z,99.90
2019-05-05T01:01:22.193Z,99.90
2019-05-05T01:02:14.960Z,99.90
2019-05-05T01:02:54.214Z,99.90
2019-05-05T01:03:34.764Z,99.90
2019-05-05T01:04:14.516Z,99.90
2019-05-05T01:04:58.078Z,99.90
2019-05-05T01:05:52.510Z,99.90
2019-05-05T01:06:32.014Z,99.90
2019-05-05T01:07:09.792Z,99.90
2019-05-05T01:07:47.810Z,99.90
2019-05-05T01:08:27.766Z,99.90
2019-05-05T01:09:08.220Z,99.90
2019-05-05T01:09:46.474Z,99.90
2019-05-05T01:10:35.239Z,99.90
2019-05-05T01:11:14.473Z,99.90
2019-05-05T01:11:52.140Z,99.90
2019-05-05T01:12:29.288Z,99.90
2019-05-05T01:13:06.868Z,99.90
2019-05-05T01:13:45.546Z,99.90
2019-05-05T01:14:24.997Z,99.90
2019-05-05T01:15:04.629Z,99.90
2019-05-05T01:15:44.833Z,99.90
2019-05-05T01:16:24.566Z,99.90
2019-05-05T01:17:02.075Z,99.90
2019-05-05T01:17:41.069Z,99.90
2019-05-05T01:18:18.573Z,99.90
2019-05-05T01:18:56.147Z,99.90
2019-05-05T01:19:34.990Z,99.90
2019-05-05T01:20:14.618Z,99.90
2019-05-05T01:20:51.866Z,99.90
2019-05-05T01:21:29.851Z,99.90
2019-05-05T01:22:08.878Z,99.90
2019-05-05T01:22:45.942Z,99.90
2019-05-05T01:23:25.158Z,99.90
2019-05-05T01:24:02.638Z,99.90
2019-05-05T01:24:40.020Z,99.90
2019-05-05T01:25:17.628Z,99.90
2019-05-05T01:25:55.516Z,99.90
2019-05-05T01:26:35.295Z,99.90
2019-05-05T01:27:14.620Z,99.90
2019-05-05T01:27:51.850Z,99.90
2019-05-05T01:28:28.928Z,99.90
2019-05-05T01:29:08.680Z,99.90
2019-05-05T01:29:46.810Z,99.90
2019-05-05T01:30:28.142Z,99.90
2019-05-05T01:31:09.761Z,99.90
2019-05-05T01:31:47.526Z,99.90
2019-05-05T01:32:29.375Z,99.90
2019-05-05T01:33:14.570Z,99.90
2019-05-05T01:34:15.322Z,99.90
2019-05-05T01:34:54.768Z,99.90
2019-05-05T01:35:34.020Z,99.90
2019-05-05T01:36:11.616Z,99.90
2019-05-05T01:36:54.358Z,99.90
2019-05-05T01:37:50.912Z,99.90
2019-05-05T01:38:36.214Z,99.90
2019-05-05T01:39:31.718Z,99.90
2019-05-05T01:40:19.236Z,99.90
2019-05-05T01:41:04.516Z,99.90
2019-05-05T01:41:47.146Z,99.90
2019-05-05T01:42:25.194Z,99.90
2019-05-05T01:43:05.334Z,99.90
2019-05-05T01:43:42.134Z,99.90
2019-05-05T01:44:20.023Z,99.90
2019-05-05T01:44:58.046Z,99.90
2019-05-05T01:45:35.720Z,99.90
2019-05-05T01:46:14.356Z,99.90
2019-05-05T01:46:52.594Z,99.90
2019-05-05T01:47:30.380Z,99.90
2019-05-05T01:48:07.126Z,99.90
2019-05-05T01:48:44.630Z,99.90
2019-05-05T01:49:25.335Z,99.90
2019-05-05T01:50:16.743Z,99.90
2019-05-05T01:50:45.310Z,99.90
2019-05-05T01:51:24.593Z,99.90
2019-05-05T01:52:04.503Z,99.90
2019-05-05T01:52:41.984Z,99.90
2019-05-05T01:53:19.944Z,99.90
2019-05-05T01:53:57.815Z,99.90
2019-05-05T01:54:36.842Z,99.90
2019-05-05T01:55:14.735Z,99.90
2019-05-05T01:55:55.085Z,99.90
2019-05-05T01:56:35.118Z,99.90
2019-05-05T01:57:14.597Z,99.90
2019-05-05T01:57:54.228Z,99.90
2019-05-05T01:58:32.424Z,99.90
2019-05-05T01:59:10.270Z,99.90
2019-05-05T01:59:47.672Z,99.90
2019-05-05T02:00:25.523Z,99.90
2019-05-05T02:01:04.944Z,99.90
2019-05-05T02:01:44.395Z,99.90
2019-05-05T02:02:21.950Z,99.90
2019-05-05T02:02:59.775Z,99.90
2019-05-05T02:03:36.972Z,99.90
2019-05-05T02:04:15.242Z,99.90
2019-05-05T02:04:55.348Z,99.90
2019-05-05T02:05:34.842Z,99.90
2019-05-05T02:06:14.720Z,99.90
2019-05-05T02:06:52.320Z,99.90
2019-05-05T02:07:30.190Z,99.90
2019-05-05T02:08:10.126Z,99.90
2019-05-05T02:08:48.442Z,99.90
2019-05-05T02:09:25.698Z,99.90
2019-05-05T02:10:06.019Z,99.90
2019-05-05T02:10:45.186Z,99.90
2019-05-05T02:11:24.718Z,99.90
2019-05-05T02:12:04.984Z,99.90
2019-05-05T02:12:44.579Z,99.90
2019-05-05T02:13:22.244Z,99.90
2019-05-05T02:14:02.489Z,99.90
2019-05-05T02:14:44.421Z,99.90
2019-05-05T02:15:22.256Z,99.90
2019-05-05T02:16:00.171Z,99.90
2019-05-05T02:16:38.282Z,99.90
2019-05-05T02:17:18.346Z,99.90
2019-05-05T02:17:55.842Z,99.90
2019-05-05T02:18:34.559Z,99.90
2019-05-05T02:19:14.188Z,99.90
2019-05-05T02:19:52.196Z,99.90
2019-05-05T02:21:04.993Z,99.90
2019-05-05T02:21:42.688Z,99.90
2019-05-05T02:22:20.902Z,99.90
2019-05-05T02:22:58.450Z,99.90
2019-05-05T02:23:37.465Z,99.90
2019-05-05T02:24:14.937Z,99.90
2019-05-05T02:24:52.561Z,99.90
2019-05-05T02:25:31.642Z,99.90
2019-05-05T02:26:09.004Z,99.90
2019-05-05T02:26:46.589Z,99.90
2019-05-05T02:27:25.433Z,99.90
2019-05-05T02:28:04.455Z,99.90
2019-05-05T02:28:48.633Z,99.90
2019-05-05T02:29:30.938Z,99.90
2019-05-05T02:30:35.760Z,99.90
2019-05-05T02:31:18.291Z,99.90
2019-05-05T02:32:15.615Z,99.90
2019-05-05T02:32:59.018Z,99.90
2019-05-05T02:33:36.804Z,99.90
2019-05-05T02:34:16.439Z,99.90
2019-05-05T02:34:56.793Z,99.90
2019-05-05T02:35:35.405Z,99.90
2019-05-05T02:36:15.770Z,99.90
2019-05-05T02:36:52.433Z,99.90
2019-05-05T02:37:37.120Z,99.90
2019-05-05T02:38:15.829Z,99.90
2019-05-05T02:38:56.469Z,99.90
2019-05-05T02:39:35.206Z,99.90
2019-05-05T02:40:15.694Z,99.90
2019-05-05T02:40:54.883Z,99.90
2019-05-05T02:41:34.836Z,99.90
2019-05-05T02:42:14.648Z,99.90
2019-05-05T02:42:54.898Z,99.90
2019-05-05T02:43:34.449Z,99.90
2019-05-05T02:44:15.194Z,99.90
2019-05-05T02:44:54.264Z,99.90
2019-05-05T02:45:49.721Z,99.90
2019-05-05T02:46:35.692Z,99.90
2019-05-05T02:47:26.416Z,99.90
2019-05-05T02:48:16.835Z,99.90
2019-05-05T02:48:56.849Z,99.90
2019-05-05T02:49:35.270Z,99.90
2019-05-05T02:50:15.469Z,99.90
2019-05-05T02:51:00.151Z,99.90
2019-05-05T02:51:35.798Z,99.90
2019-05-05T02:52:15.245Z,99.90
2019-05-05T02:52:53.545Z,99.90
2019-05-05T02:53:38.178Z,99.90
2019-05-05T02:54:16.393Z,99.90
2019-05-05T02:54:57.337Z,99.90
2019-05-05T02:55:35.965Z,99.90
2019-05-05T02:56:19.765Z,99.90
2019-05-05T02:56:57.838Z,99.90
2019-05-05T02:57:36.226Z,99.90
2019-05-05T02:58:14.034Z,99.90
2019-05-05T02:58:54.540Z,99.90
2019-05-05T03:00:01.016Z,99.90
2019-05-05T03:00:55.764Z,99.90
2019-05-05T03:01:44.611Z,99.90
2019-05-05T03:02:25.012Z,99.90
2019-05-05T03:03:04.424Z,99.90
2019-05-05T03:03:43.819Z,99.90
2019-05-05T03:04:24.429Z,99.90
2019-05-05T03:05:04.203Z,99.90
2019-05-05T03:05:43.486Z,99.90
2019-05-05T03:06:20.962Z,99.90
2019-05-05T03:07:01.566Z,99.90
2019-05-05T03:07:39.777Z,99.90
2019-05-05T03:08:17.958Z,99.90
2019-05-05T03:08:57.531Z,99.90
2019-05-05T03:09:36.168Z,99.90
2019-05-05T03:10:14.202Z,99.90
2019-05-05T03:10:53.592Z,99.90
2019-05-05T03:11:34.408Z,99.90
2019-05-05T03:12:14.916Z,99.90
2019-05-05T03:12:54.410Z,99.90
2019-05-05T03:13:33.728Z,99.90
2019-05-05T03:14:14.310Z,99.90
2019-05-05T03:14:56.818Z,99.90
2019-05-05T03:16:15.831Z,99.90
2019-05-05T03:16:54.214Z,99.90
2019-05-05T03:17:34.497Z,99.90
2019-05-05T03:18:15.456Z,99.90
2019-05-05T03:18:54.492Z,99.90
2019-05-05T03:19:53.396Z,99.90
2019-05-05T03:20:29.938Z,99.90
2019-05-05T03:21:08.078Z,99.90
2019-05-05T03:21:45.747Z,99.90
2019-05-05T03:22:23.803Z,99.90
2019-05-05T03:23:01.632Z,99.90
2019-05-05T03:23:39.857Z,99.90
2019-05-05T03:24:17.325Z,99.90
2019-05-05T03:24:55.488Z,99.90
2019-05-05T03:25:33.458Z,99.90
2019-05-05T03:26:14.484Z,99.90
2019-05-05T03:26:53.712Z,99.90
2019-05-05T03:27:34.017Z,99.90
2019-05-05T03:28:13.611Z,99.90
2019-05-05T03:28:56.232Z,99.90
2019-05-05T03:29:33.814Z,99.90
2019-05-05T03:30:15.445Z,99.90
2019-05-05T03:30:55.651Z,99.90
2019-05-05T03:31:35.212Z,99.90
2019-05-05T03:32:15.951Z,99.90
2019-05-05T03:32:51.041Z,99.90
2019-05-05T03:33:28.927Z,99.90
2019-05-05T03:34:08.668Z,99.90
2019-05-05T03:34:46.517Z,99.90
2019-05-05T03:35:24.231Z,99.90
2019-05-05T03:36:03.526Z,99.90
2019-05-05T03:36:44.087Z,99.90
2019-05-05T03:37:22.061Z,99.90
2019-05-05T03:37:59.480Z,99.90
2019-05-05T03:38:37.912Z,99.90
2019-05-05T03:39:23.593Z,99.90
2019-05-05T03:40:17.724Z,99.90
2019-05-05T03:40:57.149Z,99.90
2019-05-05T03:41:43.857Z,99.90
2019-05-05T03:42:27.084Z,99.90
2019-05-05T03:43:08.869Z,99.90
2019-05-05T03:44:09.340Z,99.90
2019-05-05T03:44:55.297Z,99.90
2019-05-05T03:45:53.849Z,99.90
2019-05-05T03:46:31.656Z,99.90
2019-05-05T03:47:09.916Z,99.90
2019-05-05T03:47:47.989Z,99.90
2019-05-05T03:48:25.696Z,99.90
2019-05-05T03:49:04.778Z,99.90
2019-05-05T03:49:44.198Z,99.90
2019-05-05T03:50:23.749Z,99.90
2019-05-05T03:51:17.450Z,99.90
2019-05-05T03:51:40.945Z,99.90
2019-05-05T03:52:18.942Z,99.90
2019-05-05T03:52:57.032Z,99.90
2019-05-05T03:53:35.329Z,99.90
2019-05-05T03:54:14.632Z,99.90
2019-05-05T03:54:54.217Z,99.90
2019-05-05T03:55:31.754Z,99.90
2019-05-05T03:56:13.958Z,99.90
2019-05-05T03:57:08.112Z,99.90
2019-05-05T03:57:45.724Z,99.90
2019-05-05T03:58:24.143Z,99.90
2019-05-05T03:59:04.695Z,99.90
2019-05-05T03:59:44.354Z,99.90
2019-05-05T04:00:57.897Z,99.90
2019-05-05T04:01:46.555Z,99.90
2019-05-05T04:02:41.632Z,99.90
2019-05-05T04:03:19.660Z,99.90
2019-05-05T04:04:16.341Z,99.90
2019-05-05T04:04:55.091Z,99.90
2019-05-05T04:05:39.670Z,99.90
2019-05-05T04:06:20.244Z,99.90
2019-05-05T04:06:57.992Z,99.90
2019-05-05T04:07:35.945Z,99.90
2019-05-05T04:08:14.483Z,99.90
2019-05-05T04:08:53.801Z,99.90
2019-05-05T04:09:31.678Z,99.90
2019-05-05T04:10:09.453Z,99.90
2019-05-05T04:10:47.545Z,99.90
2019-05-05T04:11:24.779Z,99.90
2019-05-05T04:12:04.285Z,99.90
2019-05-05T04:12:43.529Z,99.90
2019-05-05T04:13:21.129Z,99.90
2019-05-05T04:13:58.922Z,99.90
2019-05-05T04:14:36.372Z,99.90
2019-05-05T04:15:14.246Z,99.90
2019-05-05T04:16:17.563Z,99.90
2019-05-05T04:17:24.470Z,99.90
2019-05-05T04:18:10.030Z,99.90
2019-05-05T04:18:51.248Z,99.90
2019-05-05T04:19:29.262Z,99.90
2019-05-05T04:20:25.877Z,99.90
2019-05-05T04:21:04.057Z,99.90
2019-05-05T04:21:44.739Z,99.90
2019-05-05T04:22:23.651Z,99.90
2019-05-05T04:23:00.916Z,99.90
2019-05-05T04:23:41.565Z,99.90
2019-05-05T04:24:20.974Z,99.90
2019-05-05T04:24:58.881Z,99.90
2019-05-05T04:25:36.385Z,99.90
2019-05-05T04:26:14.377Z,99.90
2019-05-05T04:26:51.858Z,99.90
2019-05-05T04:27:29.823Z,99.90
2019-05-05T04:28:07.017Z,99.90
2019-05-05T04:28:45.009Z,99.90
2019-05-05T04:29:24.272Z,99.90
2019-05-05T04:30:03.620Z,99.90
2019-05-05T04:30:40.745Z,99.90
2019-05-05T04:31:18.064Z,99.90
2019-05-05T04:31:55.885Z,99.90
2019-05-05T04:32:38.043Z,99.90
2019-05-05T04:33:15.409Z,99.90
2019-05-05T04:33:53.801Z,99.90
2019-05-05T04:34:31.128Z,99.90
2019-05-05T04:35:08.611Z,99.90
2019-05-05T04:35:46.490Z,99.90
2019-05-05T04:36:23.782Z,99.90
2019-05-05T04:37:01.340Z,99.90
2019-05-05T04:37:39.129Z,99.90
2019-05-05T04:38:16.670Z,99.90
2019-05-05T04:38:54.674Z,99.90
2019-05-05T04:39:34.216Z,99.90
2019-05-05T04:40:11.791Z,99.90
2019-05-05T04:40:49.206Z,99.90
2019-05-05T04:41:26.745Z,99.90
2019-05-05T04:42:04.829Z,99.90
2019-05-05T04:42:44.089Z,99.90
2019-05-05T04:43:21.631Z,99.90
2019-05-05T04:43:58.707Z,99.90
2019-05-05T04:44:38.326Z,99.90
2019-05-05T04:45:16.665Z,99.90
2019-05-05T04:45:54.672Z,99.90
2019-05-05T04:46:33.720Z,99.90
2019-05-05T04:47:16.929Z,99.90
2019-05-05T04:47:57.954Z,99.90
2019-05-05T04:48:58.321Z,99.90
2019-05-05T04:49:44.523Z,99.90
2019-05-05T04:50:44.518Z,99.90
2019-05-05T04:51:44.824Z,99.90
2019-05-05T04:52:14.306Z,99.90
2019-05-05T04:52:54.037Z,99.90
2019-05-05T04:53:56.721Z,99.90
2019-05-05T04:54:43.901Z,99.90
2019-05-05T04:55:24.465Z,99.90
2019-05-05T04:56:04.244Z,99.90
2019-05-05T04:56:41.848Z,99.90
2019-05-05T04:57:19.168Z,99.90
2019-05-05T04:57:57.394Z,99.90
2019-05-05T04:58:35.483Z,99.90
2019-05-05T04:59:14.301Z,99.90
2019-05-05T04:59:53.943Z,99.90
2019-05-05T05:00:34.072Z,99.90
2019-05-05T05:01:11.070Z,99.90
2019-05-05T05:01:50.108Z,99.90
2019-05-05T05:02:45.738Z,99.90
2019-05-05T05:03:50.045Z,99.90
2019-05-05T05:04:46.769Z,99.90
2019-05-05T05:05:28.129Z,99.90
2019-05-05T05:06:09.101Z,99.90
2019-05-05T05:06:50.170Z,99.90
2019-05-05T05:07:27.242Z,99.90
2019-05-05T05:08:04.545Z,99.90
2019-05-05T05:08:45.345Z,99.90
2019-05-05T05:09:23.756Z,99.90
2019-05-05T05:10:01.830Z,99.90
2019-05-05T05:10:39.127Z,99.90
2019-05-05T05:11:16.954Z,99.90
2019-05-05T05:11:54.706Z,99.90
2019-05-05T05:12:33.979Z,99.90
2019-05-05T05:13:10.818Z,99.90
2019-05-05T05:13:48.273Z,99.90
2019-05-05T05:14:26.139Z,99.90
2019-05-05T05:15:04.298Z,99.90
2019-05-05T05:15:44.660Z,99.90
2019-05-05T05:16:24.581Z,99.90
2019-05-05T05:17:03.531Z,99.90
2019-05-05T05:17:46.265Z,99.90
2019-05-05T05:18:26.481Z,99.90
2019-05-05T05:19:04.342Z,99.90
2019-05-05T05:19:43.668Z,99.90
2019-05-05T05:20:21.351Z,99.90
2019-05-05T05:20:58.769Z,99.90
2019-05-05T05:21:37.701Z,99.90
2019-05-05T05:22:15.265Z,99.90
2019-05-05T05:22:54.405Z,99.90
2019-05-05T05:23:34.077Z,99.90
2019-05-05T05:24:12.081Z,99.90
2019-05-05T05:24:49.181Z,99.90
2019-05-05T05:25:26.785Z,99.90
2019-05-05T05:26:05.054Z,99.90
2019-05-05T05:26:44.160Z,99.90
2019-05-05T05:27:21.949Z,99.90
2019-05-05T05:27:59.416Z,99.90
2019-05-05T05:28:36.940Z,99.90
2019-05-05T05:29:15.222Z,99.90
2019-05-05T05:29:54.362Z,99.90
2019-05-05T05:30:34.713Z,99.90
2019-05-05T05:31:13.955Z,99.90
2019-05-05T05:31:53.451Z,99.90
2019-05-05T05:32:30.684Z,99.90
2019-05-05T05:33:10.560Z,99.90
2019-05-05T05:33:48.141Z,99.90
2019-05-05T05:34:28.433Z,99.90
2019-05-05T05:35:05.997Z,99.90
2019-05-05T05:35:44.139Z,99.90
2019-05-05T05:36:21.561Z,99.90
2019-05-05T05:36:58.853Z,99.90
2019-05-05T05:37:38.361Z,99.90
2019-05-05T05:38:15.558Z,99.90
2019-05-05T05:38:55.189Z,99.90
2019-05-05T05:39:44.032Z,99.90
2019-05-05T05:40:30.775Z,99.90
2019-05-05T05:41:15.471Z,99.90
2019-05-05T05:41:54.145Z,99.90
2019-05-05T05:42:33.528Z,99.90
2019-05-05T05:43:13.954Z,99.90
2019-05-05T05:44:16.413Z,99.90
2019-05-05T05:45:14.553Z,99.90
2019-05-05T05:46:16.633Z,99.90
2019-05-05T05:47:16.133Z,99.90
2019-05-05T05:48:06.977Z,99.90
2019-05-05T05:49:05.489Z,99.90
2019-05-05T05:49:48.179Z,99.90
2019-05-05T05:50:29.672Z,99.90
2019-05-05T05:51:09.601Z,99.90
2019-05-05T05:51:47.017Z,99.90
2019-05-05T05:52:24.385Z,99.90
2019-05-05T05:53:04.476Z,99.90
2019-05-05T05:53:41.494Z,99.90
2019-05-05T05:54:18.845Z,99.90
2019-05-05T05:54:56.023Z,99.90
2019-05-05T05:55:34.269Z,99.90
2019-05-05T05:56:13.505Z,99.90
2019-05-05T05:56:51.055Z,99.90
2019-05-05T05:57:28.178Z,99.90
2019-05-05T05:58:05.292Z,99.90
2019-05-05T05:58:44.545Z,99.90
2019-05-05T05:59:21.747Z,99.90
2019-05-05T05:59:59.141Z,99.90
2019-05-05T06:00:36.913Z,99.90
2019-05-05T06:01:14.816Z,99.90
2019-05-05T06:02:06.109Z,99.90
2019-05-05T06:02:33.480Z,99.90
2019-05-05T06:03:11.051Z,99.90
2019-05-05T06:03:48.977Z,99.90
2019-05-05T06:04:26.773Z,99.90
2019-05-05T06:05:07.303Z,99.90
2019-05-05T06:05:44.650Z,99.90
2019-05-05T06:06:24.861Z,99.90
2019-05-05T06:07:04.143Z,99.90
2019-05-05T06:07:41.350Z,99.90
2019-05-05T06:08:18.537Z,99.90
2019-05-05T06:08:56.337Z,99.90
2019-05-05T06:09:34.601Z,99.90
2019-05-05T06:10:22.207Z,99.90
2019-05-05T06:10:54.714Z,99.90
2019-05-05T06:11:32.019Z,99.90
2019-05-05T06:12:08.844Z,99.90
2019-05-05T06:12:45.632Z,99.90
2019-05-05T06:13:24.183Z,99.90
2019-05-05T06:14:03.831Z,99.90
2019-05-05T06:14:40.701Z,99.90
2019-05-05T06:15:18.575Z,99.90
2019-05-05T06:15:56.930Z,99.90
2019-05-05T06:16:34.706Z,99.90
2019-05-05T06:17:13.491Z,99.90
2019-05-05T06:17:50.669Z,99.90
2019-05-05T06:18:28.446Z,99.90
2019-05-05T06:19:05.941Z,99.90
2019-05-05T06:19:44.625Z,99.90
2019-05-05T06:20:23.711Z,99.90
2019-05-05T06:21:04.285Z,99.90
2019-05-05T06:21:41.099Z,99.90
2019-05-05T06:22:28.481Z,99.90
2019-05-05T06:22:57.282Z,99.90
2019-05-05T06:23:37.569Z,99.90
2019-05-05T06:24:14.436Z,99.90
2019-05-05T06:24:54.176Z,99.90
2019-05-05T06:25:34.004Z,99.90
2019-05-05T06:26:10.600Z,99.90
2019-05-05T06:26:47.493Z,99.90
2019-05-05T06:27:24.771Z,99.90
2019-05-05T06:28:01.228Z,99.90
2019-05-05T06:28:38.735Z,99.90
2019-05-05T06:29:16.466Z,99.90
2019-05-05T06:29:54.295Z,99.90
2019-05-05T06:30:33.744Z,99.90
2019-05-05T06:31:13.881Z,99.90
2019-05-05T06:31:51.272Z,99.90
2019-05-05T06:32:29.354Z,99.90
2019-05-05T06:33:06.425Z,99.90
2019-05-05T06:33:44.103Z,99.90
2019-05-05T06:34:24.398Z,99.90
2019-05-05T06:35:04.833Z,99.90
2019-05-05T06:35:44.218Z,99.90
2019-05-05T06:36:23.336Z,99.90
2019-05-05T06:37:04.331Z,99.90
2019-05-05T06:37:54.290Z,99.90
2019-05-05T06:38:34.343Z,99.90
2019-05-05T06:39:13.706Z,99.90
2019-05-05T06:39:54.409Z,99.90
2019-05-05T06:40:54.039Z,99.90
2019-05-05T06:41:36.970Z,99.90
2019-05-05T06:42:26.455Z,99.90
2019-05-05T06:43:16.713Z,99.90
2019-05-05T06:44:19.084Z,99.90
2019-05-05T06:45:01.374Z,99.90
2019-05-05T06:45:44.627Z,99.90
2019-05-05T06:46:24.621Z,99.90
2019-05-05T06:47:24.110Z,99.90
2019-05-05T06:48:04.210Z,99.90
2019-05-05T06:48:43.731Z,99.90
2019-05-05T06:49:21.294Z,99.90
2019-05-05T06:49:58.740Z,99.90
2019-05-05T06:50:36.481Z,99.90
2019-05-05T06:51:14.507Z,99.90
2019-05-05T06:51:52.021Z,99.90
2019-05-05T06:52:40.912Z,99.90
2019-05-05T06:53:11.172Z,99.90
2019-05-05T06:53:49.739Z,99.90
2019-05-05T06:54:27.250Z,99.90
2019-05-05T06:55:05.863Z,99.90
2019-05-05T06:55:44.477Z,99.90
2019-05-05T06:56:23.789Z,99.90
2019-05-05T06:57:01.542Z,99.90
2019-05-05T06:57:39.090Z,99.90
2019-05-05T06:58:16.849Z,99.90
2019-05-05T06:58:59.327Z,99.90
2019-05-05T06:59:38.610Z,99.90
2019-05-05T07:00:17.142Z,99.90
2019-05-05T07:00:54.622Z,99.90
2019-05-05T07:01:33.770Z,99.90
2019-05-05T07:02:14.496Z,99.90
2019-05-05T07:02:50.682Z,99.90
2019-05-05T07:03:27.923Z,99.90
2019-05-05T07:04:05.719Z,99.90
2019-05-05T07:04:44.478Z,99.90
2019-05-05T07:05:23.533Z,99.90
2019-05-05T07:06:00.956Z,99.90
2019-05-05T07:06:53.168Z,99.90
2019-05-05T07:07:18.782Z,99.90
2019-05-05T07:07:55.896Z,99.90
2019-05-05T07:08:34.719Z,99.90
2019-05-05T07:09:13.889Z,99.90
2019-05-05T07:09:54.322Z,99.90
2019-05-05T07:10:33.712Z,99.90
2019-05-05T07:11:11.125Z,99.90
2019-05-05T07:11:48.674Z,99.90
2019-05-05T07:12:26.198Z,99.90
2019-05-05T07:13:04.964Z,99.90
2019-05-05T07:13:44.316Z,99.90
2019-05-05T07:14:23.598Z,99.90
2019-05-05T07:15:01.070Z,99.90
2019-05-05T07:15:38.375Z,99.90
2019-05-05T07:16:16.214Z,99.90
2019-05-05T07:16:54.453Z,99.90
2019-05-05T07:17:33.813Z,99.90
2019-05-05T07:18:11.670Z,99.90
2019-05-05T07:18:49.429Z,99.90
2019-05-05T07:19:27.015Z,99.90
2019-05-05T07:20:05.554Z,99.90
2019-05-05T07:20:44.050Z,99.90
2019-05-05T07:21:23.720Z,99.90
2019-05-05T07:22:03.916Z,99.90
2019-05-05T07:22:41.271Z,99.90
2019-05-05T07:23:18.614Z,99.90
2019-05-05T07:23:56.840Z,99.90
2019-05-05T07:24:34.565Z,99.90
2019-05-05T07:25:13.757Z,99.90
2019-05-05T07:25:51.258Z,99.90
2019-05-05T07:26:29.353Z,99.90
2019-05-05T07:27:06.932Z,99.90
2019-05-05T07:27:46.764Z,99.90
2019-05-05T07:28:24.450Z,99.90
2019-05-05T07:29:04.473Z,99.90
2019-05-05T07:29:43.681Z,99.90
2019-05-05T07:30:24.371Z,99.90
2019-05-05T07:31:04.177Z,99.90
2019-05-05T07:31:44.095Z,99.90
2019-05-05T07:32:21.606Z,99.90
2019-05-05T07:33:04.434Z,99.90
2019-05-05T07:33:41.034Z,99.90
2019-05-05T07:34:18.962Z,99.90
2019-05-05T07:35:34.495Z,99.90
2019-05-05T07:36:29.356Z,99.90
2019-05-05T07:37:07.315Z,99.90
2019-05-05T07:37:45.004Z,99.90
2019-05-05T07:38:24.405Z,99.90
2019-05-05T07:39:03.859Z,99.90
2019-05-05T07:39:41.844Z,99.90
2019-05-05T07:40:19.787Z,99.90
2019-05-05T07:40:59.862Z,99.90
2019-05-05T07:41:40.409Z,99.90
2019-05-05T07:42:17.152Z,99.90
2019-05-05T07:42:54.619Z,99.90
2019-05-05T07:43:37.964Z,99.90
2019-05-05T07:44:27.685Z,99.90
2019-05-05T07:45:00.462Z,99.90
2019-05-05T07:45:37.568Z,99.90
2019-05-05T07:46:15.114Z,99.90
2019-05-05T07:46:54.312Z,99.90
2019-05-05T07:47:34.348Z,99.90
2019-05-05T07:48:13.879Z,99.90
2019-05-05T07:48:54.349Z,99.90
2019-05-05T07:49:33.594Z,99.90
2019-05-05T07:50:25.413Z,99.90
2019-05-05T07:50:59.723Z,99.90
2019-05-05T07:51:30.306Z,99.90
2019-05-05T07:52:14.892Z,99.90
2019-05-05T07:52:54.431Z,99.90
2019-05-05T07:53:33.568Z,99.90
2019-05-05T07:54:10.757Z,99.90
2019-05-05T07:54:48.814Z,99.90
2019-05-05T07:55:26.372Z,99.90
2019-05-05T07:56:03.983Z,99.90
2019-05-05T07:56:44.353Z,99.90
2019-05-05T07:57:23.814Z,99.90
2019-05-05T07:58:01.188Z,99.90
2019-05-05T07:58:39.623Z,99.90
2019-05-05T07:59:16.866Z,99.90
2019-05-05T07:59:54.577Z,99.90
2019-05-05T08:00:34.167Z,99.90
2019-05-05T08:01:11.398Z,99.90
2019-05-05T08:01:49.002Z,99.90
2019-05-05T08:02:30.684Z,99.90
2019-05-05T08:03:08.608Z,99.90
2019-05-05T08:03:53.714Z,99.90
2019-05-05T08:04:34.732Z,99.90
2019-05-05T08:05:14.130Z,99.90
2019-05-05T08:05:54.369Z,99.90
2019-05-05T08:06:33.851Z,99.90
2019-05-05T08:07:10.868Z,99.90
2019-05-05T08:07:48.562Z,99.90
2019-05-05T08:08:26.108Z,99.90
2019-05-05T08:09:04.125Z,99.90
2019-05-05T08:09:41.738Z,99.90
2019-05-05T08:10:20.102Z,99.90
2019-05-05T08:10:57.358Z,99.90
2019-05-05T08:11:35.478Z,99.90
2019-05-05T08:12:13.860Z,99.90
2019-05-05T08:12:54.052Z,99.90
2019-05-05T08:13:31.138Z,99.90
2019-05-05T08:14:09.236Z,99.90
2019-05-05T08:14:46.704Z,99.90
2019-05-05T08:15:24.680Z,99.90
2019-05-05T08:16:04.729Z,99.90
2019-05-05T08:16:58.460Z,99.90
2019-05-05T08:17:59.148Z,99.90
2019-05-05T08:18:49.152Z,99.90
2019-05-05T08:19:36.762Z,99.90
2019-05-05T08:20:19.447Z,99.90
2019-05-05T08:20:58.967Z,99.90
2019-05-05T08:21:36.871Z,99.90
2019-05-05T08:22:15.015Z,99.90
2019-05-05T08:22:53.643Z,99.90
2019-05-05T08:23:39.275Z,99.90
2019-05-05T08:24:33.818Z,99.90
2019-05-05T08:25:39.756Z,99.90
2019-05-05T08:26:20.228Z,99.20
2019-05-05T08:27:24.903Z,99.50
2019-05-05T08:28:18.346Z,99.60
2019-05-05T08:29:21.040Z,99.60
2019-05-05T08:30:05.161Z,99.90
2019-05-05T08:30:47.987Z,99.50
2019-05-05T08:31:44.283Z,99.90
2019-05-05T08:32:25.102Z,99.40
2019-05-05T08:33:04.642Z,98.40
2019-05-05T08:33:44.176Z,98.70
2019-05-05T08:34:21.406Z,99.00
2019-05-05T08:35:00.929Z,99.60
2019-05-05T08:35:38.206Z,99.80
2019-05-05T08:36:16.079Z,99.90
2019-05-05T08:36:54.070Z,99.50
2019-05-05T08:37:34.189Z,99.40
2019-05-05T08:38:11.257Z,99.40
2019-05-05T08:38:48.512Z,99.50
2019-05-05T08:39:26.023Z,99.80
2019-05-05T08:40:06.468Z,99.90
2019-05-05T08:40:43.958Z,99.90
2019-05-05T08:41:21.999Z,99.90
2019-05-05T08:41:59.823Z,99.90
2019-05-05T08:42:37.254Z,98.50
2019-05-05T08:43:14.789Z,97.40
2019-05-05T08:43:54.302Z,97.60
2019-05-05T08:44:34.212Z,97.80
2019-05-05T08:45:11.259Z,97.70
2019-05-05T08:45:49.046Z,97.70